Time;durP1;ratioP1;P1;durP2;ratioP2;P2;SDS_P1;SDS_P2;PMS_P1;PMS_P2;Temp;Humidity;BMP_temperature;BMP_pressure;BME280_temperature;BME280_humidity;BME280_pressure;Samples;Min_cycle;Max_cycle;Signal;HPM_P1;HPM_P2
2022/11/01 00:02:07;;;;;;;16.40;7.80;;;;;;;14.11;100.00;100625.63;5089966;28;20038;-70
2022/11/01 00:04:32;;;;;;;17.55;7.15;;;;;;;14.10;100.00;100624.72;5076667;28;20103;-68
2022/11/01 00:06:58;;;;;;;12.45;7.00;;;;;;;14.15;100.00;100622.09;5076342;28;20021;-68
2022/11/01 00:09:23;;;;;;;17.77;7.35;;;;;;;14.16;100.00;100621.19;5092942;28;20095;-68
2022/11/01 00:11:48;;;;;;;12.73;7.13;;;;;;;14.16;100.00;100622.09;5092656;28;20095;-68
2022/11/01 00:14:16;;;;;;;16.52;7.63;;;;;;;14.22;100.00;100620.31;5089647;28;20710;-69
2022/11/01 00:16:41;;;;;;;19.25;8.35;;;;;;;14.26;100.00;100624.72;5090636;28;20457;-69
2022/11/01 00:19:07;;;;;;;14.32;6.05;;;;;;;14.30;100.00;100621.19;5083335;28;20032;-68
2022/11/01 00:21:33;;;;;;;17.20;7.60;;;;;;;14.31;100.00;100618.53;5087256;28;20035;-69
2022/11/01 00:23:58;;;;;;;15.00;6.65;;;;;;;14.34;100.00;100621.16;5086007;28;20029;-69
2022/11/01 00:26:24;;;;;;;18.30;6.60;;;;;;;14.37;100.00;100604.41;5086539;28;20388;-70
2022/11/01 00:28:50;;;;;;;15.18;7.30;;;;;;;14.44;100.00;100600.84;5092556;28;20043;-68
2022/11/01 00:31:17;;;;;;;15.95;7.60;;;;;;;14.49;100.00;100607.00;5091083;28;20037;-69
2022/11/01 00:33:43;;;;;;;18.40;7.53;;;;;;;14.52;100.00;100589.34;5077317;28;20062;-68
2022/11/01 00:36:09;;;;;;;13.20;6.40;;;;;;;14.57;100.00;100599.03;5092623;28;20062;-69
2022/11/01 00:38:35;;;;;;;13.23;6.50;;;;;;;14.61;100.00;100599.88;5092706;28;20594;-69
2022/11/01 00:41:02;;;;;;;17.25;6.75;;;;;;;14.66;100.00;100587.53;5092483;28;20073;-69
2022/11/01 00:43:28;;;;;;;14.73;5.53;;;;;;;14.73;100.00;100591.03;5090078;28;20023;-69
2022/11/01 00:45:53;;;;;;;10.52;5.47;;;;;;;14.79;100.00;100589.25;5090342;28;20043;-69
2022/11/01 00:48:19;;;;;;;12.38;5.78;;;;;;;14.83;100.00;100580.41;5091958;28;20058;-69
2022/11/01 00:50:44;;;;;;;16.40;6.70;;;;;;;14.85;100.00;100590.97;5092990;28;20070;-69
2022/11/01 00:53:11;;;;;;;18.45;7.10;;;;;;;14.89;100.00;100592.72;5077622;28;20121;-70
2022/11/01 00:55:37;;;;;;;17.85;7.15;;;;;;;14.91;100.00;100596.25;5086536;28;20028;-69
2022/11/01 00:58:02;;;;;;;14.10;7.38;;;;;;;14.94;100.00;100588.28;5092119;28;20055;-70
2022/11/01 01:00:29;;;;;;;10.60;5.43;;;;;;;14.98;100.00;100581.22;5072868;28;20106;-69
2022/11/01 01:02:54;;;;;;;12.05;6.80;;;;;;;15.01;100.00;100590.00;5085806;28;20061;-69
2022/11/01 01:05:20;;;;;;;11.98;5.63;;;;;;;15.07;100.00;100580.25;5086486;28;20022;-69
2022/11/01 01:07:45;;;;;;;17.05;6.82;;;;;;;15.08;100.00;100574.09;5076777;28;20032;-70
2022/11/01 01:10:10;;;;;;;14.48;5.68;;;;;;;15.08;100.00;100569.66;5089172;28;20092;-68
2022/11/01 01:12:36;;;;;;;17.73;6.18;;;;;;;15.07;100.00;100573.22;5085388;28;20029;-68
2022/11/01 01:15:02;;;;;;;10.60;5.60;;;;;;;15.08;100.00;100558.19;5084817;28;20019;-69
2022/11/01 01:17:28;;;;;;;12.57;5.85;;;;;;;15.12;100.00;100567.88;5088369;28;20577;-69
2022/11/01 01:19:53;;;;;;;11.65;5.55;;;;;;;15.16;100.00;100559.88;5106349;28;20035;-68
2022/11/01 01:22:18;;;;;;;11.77;5.72;;;;;;;15.22;100.00;100572.22;5078794;28;20063;-69
2022/11/01 01:24:46;;;;;;;16.42;5.32;;;;;;;15.28;100.00;100571.31;5090345;28;20052;-69
2022/11/01 01:27:13;;;;;;;8.15;5.40;;;;;;;15.31;100.00;100572.16;5091151;28;20020;-70
2022/11/01 01:29:43;;;;;;;13.50;5.65;;;;;;;15.37;100.00;100565.94;5090008;28;20028;-69
2022/11/01 01:32:12;;;;;;;15.18;5.43;;;;;;;15.36;100.00;100564.16;5091938;28;20036;-68
2022/11/01 01:34:37;;;;;;;15.88;5.47;;;;;;;15.39;100.00;100553.53;5092429;28;20043;-70
2022/11/01 01:37:02;;;;;;;11.65;5.50;;;;;;;15.47;100.00;100564.94;5091048;28;20032;-68
2022/11/01 01:39:28;;;;;;;9.65;4.82;;;;;;;15.51;100.00;100556.06;5086585;28;20136;-69
2022/11/01 01:41:56;;;;;;;18.70;7.68;;;;;;;15.56;100.00;100566.66;5091805;28;20032;-68
2022/11/01 01:44:48;;;;;;;14.90;5.55;;;;;;;15.59;100.00;100560.47;5092042;28;20027;-69
2022/11/01 01:47:20;;;;;;;10.88;5.78;;;;;;;15.62;100.00;100558.63;5087541;28;20036;-69
2022/11/01 01:49:53;;;;;;;12.75;5.32;;;;;;;15.61;100.00;100558.66;5081243;28;20558;-71
2022/11/01 01:52:19;;;;;;;12.55;6.22;;;;;;;15.64;100.00;100553.31;5095749;28;20028;-68
2022/11/01 01:54:45;;;;;;;11.85;5.22;;;;;;;15.67;100.00;100555.97;5082760;28;20032;-69
2022/11/01 01:57:11;;;;;;;17.80;6.15;;;;;;;15.66;100.00;100562.16;5092340;28;20477;-68
2022/11/01 01:59:38;;;;;;;13.43;5.50;;;;;;;15.70;100.00;100568.31;5076417;28;20048;-69
2022/11/01 02:02:03;;;;;;;11.27;5.28;;;;;;;15.70;100.00;100558.56;5081658;28;20028;-67
2022/11/01 02:04:40;;;;;;;11.18;4.93;;;;;;;15.67;100.00;100558.63;5085866;28;20024;-68
2022/11/01 02:07:06;;;;;;;9.10;5.32;;;;;;;15.61;100.00;100554.25;5083188;28;20345;-69
2022/11/01 02:09:32;;;;;;;10.80;5.78;;;;;;;15.56;100.00;100544.56;5095516;28;20027;-69
2022/11/01 02:11:57;;;;;;;10.40;5.28;;;;;;;15.54;100.00;100551.66;5091690;28;20495;-70
2022/11/01 02:14:24;;;;;;;13.02;5.78;;;;;;;15.53;100.00;100550.75;5092176;28;20059;-69
2022/11/01 02:16:55;;;;;;;18.25;5.47;;;;;;;15.58;100.00;100574.59;5091753;28;20107;-69
2022/11/01 02:19:37;;;;;;;13.88;5.10;;;;;;;15.49;100.00;100581.75;5089927;28;20498;-69
2022/11/01 02:22:24;;;;;;;15.20;5.20;;;;;;;15.34;100.00;100581.84;5093777;28;20024;-68
2022/11/01 02:25:01;;;;;;;9.40;4.55;;;;;;;15.25;100.00;100589.88;5095777;28;20035;-69
2022/11/01 02:27:41;;;;;;;12.73;3.78;;;;;;;15.21;100.00;100585.50;5095863;28;20028;-70
2022/11/01 02:30:13;;;;;;;3.72;2.53;;;;;;;15.15;100.00;100604.94;5089659;28;20028;-68
2022/11/01 02:32:44;;;;;;;6.25;2.03;;;;;;;15.22;100.00;100605.78;5083367;28;20491;-67
2022/11/01 02:35:35;;;;;;;4.28;2.13;;;;;;;15.23;100.00;100604.91;5095201;28;20096;-68
2022/11/01 02:38:13;;;;;;;5.85;1.80;;;;;;;15.20;100.00;100618.19;5085928;28;20059;-69
2022/11/01 02:41:12;;;;;;;5.32;2.05;;;;;;;15.22;100.00;100611.09;5095249;28;20502;-71
2022/11/01 02:43:58;;;;;;;7.22;1.85;;;;;;;15.14;100.00;100617.31;5070575;28;20044;-69
2022/11/01 02:49:14;;;;;;;3.13;1.50;;;;;;;15.04;100.00;100626.22;5077990;28;20071;-69
2022/11/01 02:51:43;;;;;;;4.15;1.50;;;;;;;15.06;100.00;100623.56;5085141;28;20119;-69
2022/11/01 02:54:16;;;;;;;3.95;1.45;;;;;;;14.98;100.00;100626.25;5084527;28;20051;-69
2022/11/01 02:56:42;;;;;;;6.13;1.75;;;;;;;14.93;100.00;100628.03;5094473;28;20036;-70
2022/11/01 02:59:18;;;;;;;5.35;1.55;;;;;;;14.93;100.00;100639.50;5093857;28;20043;-69
2022/11/01 03:02:07;;;;;;;9.18;1.40;;;;;;;14.88;100.00;100633.38;5093776;28;20126;-69
2022/11/01 03:04:35;;;;;;;6.28;1.17;;;;;;;14.88;100.00;100658.97;5093289;28;20039;-69
2022/11/01 03:07:05;;;;;;;6.22;0.90;;;;;;;14.87;100.00;100652.81;5094033;28;20107;-69
2022/11/01 03:09:33;;;;;;;4.30;1.50;;;;;;;14.82;100.00;100650.16;5089931;28;20029;-68
2022/11/01 03:12:01;;;;;;;2.58;1.17;;;;;;;14.83;100.00;100646.63;5089875;28;20695;-68
2022/11/01 03:14:46;;;;;;;2.97;1.08;;;;;;;14.82;100.00;100652.81;5088958;28;20024;-68
2022/11/01 03:17:21;;;;;;;5.35;0.90;;;;;;;14.81;100.00;100656.38;5092278;28;20024;-69
2022/11/01 03:20:04;;;;;;;5.05;1.30;;;;;;;14.79;100.00;100670.50;5089976;28;20024;-67
2022/11/01 03:22:34;;;;;;;7.75;1.30;;;;;;;14.79;100.00;100658.13;5092370;28;20784;-68
2022/11/01 03:25:38;;;;;;;2.42;1.15;;;;;;;14.87;100.00;100689.91;5094031;28;20031;-68
2022/11/01 03:28:10;;;;;;;5.50;0.85;;;;;;;14.79;100.00;100676.66;5081539;28;20036;-67
2022/11/01 03:30:40;;;;;;;2.35;0.85;;;;;;;14.81;100.00;100682.84;5093692;28;20028;-68
2022/11/01 03:33:06;;;;;;;2.30;0.85;;;;;;;14.75;100.00;100693.47;5085638;28;20063;-69
2022/11/01 03:35:35;;;;;;;2.70;0.90;;;;;;;14.77;100.00;100686.41;5091428;28;20495;-67
2022/11/01 03:38:05;;;;;;;3.55;0.90;;;;;;;14.69;100.00;100701.44;5093542;28;20019;-69
2022/11/01 03:40:33;;;;;;;6.10;0.82;;;;;;;14.68;100.00;100686.44;5093712;28;20379;-69
2022/11/01 03:43:05;;;;;;;4.50;1.42;;;;;;;14.63;100.00;100704.97;5087159;28;20063;-68
2022/11/01 03:45:36;;;;;;;4.70;0.97;;;;;;;14.58;100.00;100717.31;5073817;28;20033;-68
2022/11/01 03:48:04;;;;;;;5.22;1.10;;;;;;;14.49;100.00;100718.19;5089870;28;20027;-68
2022/11/01 03:50:30;;;;;;;7.38;1.30;;;;;;;14.45;100.00;100708.50;5074814;28;20451;-68
2022/11/01 03:52:56;;;;;;;1.90;0.70;;;;;;;14.40;100.00;100726.16;5085069;28;20052;-68
2022/11/01 03:55:22;;;;;;;3.30;0.88;;;;;;;14.36;100.00;100732.34;5092407;28;20040;-68
2022/11/01 03:57:48;;;;;;;8.70;1.38;;;;;;;14.36;100.00;100737.63;5093331;28;20410;-68
2022/11/01 04:00:15;;;;;;;6.38;1.30;;;;;;;14.36;100.00;100736.75;5084407;28;20045;-68
2022/11/01 04:02:42;;;;;;;7.15;1.10;;;;;;;14.37;100.00;100743.81;5085859;28;20422;-68
2022/11/01 04:05:08;;;;;;;7.22;1.13;;;;;;;14.39;100.00;100747.34;5092592;28;20028;-69
2022/11/01 04:07:33;;;;;;;2.47;1.30;;;;;;;14.36;100.00;100747.34;5093448;28;20068;-69
2022/11/01 04:09:59;;;;;;;6.63;1.15;;;;;;;14.37;100.00;100754.41;5090113;28;20752;-69
2022/11/01 04:12:24;;;;;;;8.90;1.10;;;;;;;14.32;100.00;100768.53;5092411;28;20035;-69
2022/11/01 04:20:33;;;;;;;;;;;;;;;14.20;100.00;100772.91;5091660;28;20050;-68
2022/11/01 04:23:03;;;;;;;9.48;1.20;;;;;;;14.21;100.00;100793.22;5092818;28;19918;-68
2022/11/01 04:25:30;;;;;;;12.13;2.33;;;;;;;14.21;100.00;100785.28;5090897;28;20085;-68
2022/11/01 04:27:55;;;;;;;3.97;1.38;;;;;;;14.15;100.00;100781.75;5092650;28;20024;-69
2022/11/01 04:30:25;;;;;;;12.77;1.63;;;;;;;14.09;100.00;100791.44;5082874;28;20036;-69
2022/11/01 04:32:51;;;;;;;8.95;1.20;;;;;;;14.06;100.00;100788.78;5087224;28;20024;-69
2022/11/01 04:35:16;;;;;;;4.45;1.25;;;;;;;14.03;100.00;100786.16;5090576;28;20108;-69
2022/11/01 04:37:42;;;;;;;11.10;1.80;;;;;;;14.01;100.00;100804.66;5085579;28;20477;-69
2022/11/01 04:40:08;;;;;;;8.88;1.30;;;;;;;13.99;100.00;100795.84;5087591;28;20035;-68
2022/11/01 04:42:34;;;;;;;8.13;1.52;;;;;;;13.91;100.00;100787.88;5092514;28;20081;-69
2022/11/01 04:45:00;;;;;;;8.50;2.03;;;;;;;13.83;100.00;100793.16;5092458;28;20032;-69
2022/11/01 04:47:25;;;;;;;13.20;2.25;;;;;;;13.76;100.00;100783.44;5084429;28;20031;-69
2022/11/01 04:49:51;;;;;;;11.30;1.52;;;;;;;13.73;100.00;100786.09;5091004;28;20471;-69
2022/11/01 04:52:16;;;;;;;11.30;1.17;;;;;;;13.66;100.00;100794.88;5081708;28;20028;-68
2022/11/01 04:54:41;;;;;;;8.57;1.50;;;;;;;13.59;100.00;100790.44;5077063;28;20028;-69
2022/11/01 04:57:07;;;;;;;6.78;1.42;;;;;;;13.57;100.00;100787.78;5093115;28;20127;-69
2022/11/01 04:59:32;;;;;;;11.30;1.85;;;;;;;13.55;100.00;100788.66;5090635;28;20040;-69
2022/11/01 05:01:57;;;;;;;14.35;1.60;;;;;;;13.53;100.00;100798.38;5085154;28;20035;-69
2022/11/01 05:04:22;;;;;;;9.20;1.25;;;;;;;13.55;100.00;100793.94;5090432;28;20027;-68
2022/11/01 05:06:48;;;;;;;8.88;1.70;;;;;;;13.52;100.00;100799.25;5092243;28;20024;-68
2022/11/01 05:09:13;;;;;;;20.58;1.95;;;;;;;13.47;100.00;100784.25;5078385;28;20502;-69
2022/11/01 05:11:38;;;;;;;7.63;1.40;;;;;;;13.45;100.00;100785.13;5089305;28;20026;-69
2022/11/01 05:14:04;;;;;;;4.88;0.98;;;;;;;13.41;100.00;100805.34;5081917;28;20039;-68
2022/11/01 05:16:29;;;;;;;9.35;1.60;;;;;;;13.39;100.00;100799.19;5076627;28;20105;-68
2022/11/01 05:18:54;;;;;;;10.45;1.70;;;;;;;13.43;100.00;100800.97;5088851;28;20486;-69
2022/11/01 05:21:19;;;;;;;10.80;1.30;;;;;;;13.43;100.00;100800.97;5093282;28;20023;-68
2022/11/01 05:23:48;;;;;;;9.73;1.65;;;;;;;13.44;100.00;100797.47;5095626;28;20218;-69
2022/11/01 05:26:13;;;;;;;8.15;1.40;;;;;;;13.42;100.00;100796.56;5096266;28;20109;-68
2022/11/01 05:28:38;;;;;;;12.02;2.45;;;;;;;13.39;100.00;100804.47;5093782;28;20480;-68
2022/11/01 05:31:04;;;;;;;19.13;2.13;;;;;;;13.38;100.00;100789.50;5083486;28;20129;-69
2022/11/01 05:33:29;;;;;;;14.07;1.65;;;;;;;13.39;100.00;100799.19;5093885;28;20028;-68
2022/11/01 05:35:54;;;;;;;14.02;1.83;;;;;;;13.39;100.00;100804.47;5084020;28;20026;-68
2022/11/01 05:38:20;;;;;;;8.07;1.73;;;;;;;13.39;100.00;100791.25;5077296;28;20074;-69
2022/11/01 05:40:45;;;;;;;12.35;2.05;;;;;;;13.39;100.00;100820.34;5087351;28;20070;-69
2022/11/01 05:43:10;;;;;;;12.15;1.73;;;;;;;13.33;100.00;100820.25;5087895;28;20424;-69
2022/11/01 05:45:36;;;;;;;10.30;1.58;;;;;;;13.36;100.00;100795.66;5085554;28;20107;-69
2022/11/01 05:48:03;;;;;;;7.28;1.20;;;;;;;13.31;100.00;100812.34;5084969;28;20414;-70
2022/11/01 05:50:28;;;;;;;9.00;1.35;;;;;;;13.30;100.00;100826.41;5089338;28;20047;-68
2022/11/01 05:52:53;;;;;;;10.60;1.73;;;;;;;13.26;100.00;100819.34;5095624;28;20032;-70
2022/11/01 05:55:18;;;;;;;11.68;1.73;;;;;;;13.26;100.00;100824.63;5081107;28;20024;-69
2022/11/01 05:57:44;;;;;;;11.60;1.98;;;;;;;13.33;100.00;100822.91;5096101;28;20024;-69
2022/11/01 06:00:10;;;;;;;6.53;1.65;;;;;;;13.36;100.00;100824.72;5092816;28;20047;-68
2022/11/01 06:02:35;;;;;;;15.55;1.48;;;;;;;13.36;100.00;100816.78;5089850;28;20355;-68
2022/11/01 06:05:01;;;;;;;9.65;1.73;;;;;;;13.37;100.00;100822.06;5092783;28;20102;-69
2022/11/01 06:07:26;;;;;;;16.02;2.10;;;;;;;13.39;100.00;100836.19;5088166;28;20078;-69
2022/11/01 06:09:52;;;;;;;14.57;2.20;;;;;;;13.39;100.00;100841.47;5087292;28;20059;-68
2022/11/01 06:12:17;;;;;;;16.63;1.85;;;;;;;13.40;100.00;100832.69;5095914;28;20034;-69
2022/11/01 06:14:42;;;;;;;16.85;2.72;;;;;;;13.35;100.00;100842.31;5091069;28;20016;-68
2022/11/01 06:17:11;;;;;;;22.30;2.78;;;;;;;13.36;100.00;100852.06;5083887;28;20481;-68
2022/11/01 06:19:37;;;;;;;8.57;1.88;;;;;;;13.36;100.00;100852.06;5081016;28;20052;-69
2022/11/01 06:22:02;;;;;;;15.10;1.90;;;;;;;13.38;100.00;100818.56;5084766;28;20443;-69
2022/11/01 06:24:28;;;;;;;14.35;2.25;;;;;;;13.44;99.17;100845.03;5094275;28;20081;-69
2022/11/01 06:26:53;;;;;;;13.27;2.28;;;;;;;13.48;98.21;100835.34;5088319;28;20020;-68
2022/11/01 06:29:18;;;;;;;17.92;1.75;;;;;;;13.48;98.16;100857.38;5093739;28;20036;-69
2022/11/01 06:31:44;;;;;;;14.85;2.45;;;;;;;13.47;99.10;100839.75;5095124;28;20028;-68
2022/11/01 06:34:09;;;;;;;11.07;1.88;;;;;;;13.45;98.96;100860.00;5094819;28;20039;-68
2022/11/01 06:36:34;;;;;;;12.50;1.70;;;;;;;13.43;98.82;100853.84;5085834;28;20391;-67
2022/11/01 06:38:59;;;;;;;9.40;2.50;;;;;;;13.42;99.78;100862.63;5075509;28;20158;-68
2022/11/01 06:41:25;;;;;;;15.55;2.15;;;;;;;13.38;100.00;100871.44;5079984;28;20024;-72
2022/11/01 06:43:50;;;;;;;19.77;2.15;;;;;;;13.40;99.59;100868.78;5090666;28;20112;-72
2022/11/01 06:46:16;;;;;;;11.95;1.80;;;;;;;13.36;100.00;100878.47;5094904;28;20020;-70
2022/11/01 06:48:41;;;;;;;14.40;2.03;;;;;;;13.39;100.00;100901.38;5086527;28;20029;-71
2022/11/01 06:51:06;;;;;;;22.98;2.30;;;;;;;13.38;100.00;100882.00;5094658;28;20052;-71
2022/11/01 06:53:32;;;;;;;8.90;2.08;;;;;;;13.35;100.00;100887.25;5094989;28;20114;-70
2022/11/01 06:55:58;;;;;;;17.05;2.10;;;;;;;13.40;100.00;100885.53;5095080;28;20028;-71
2022/11/01 06:58:24;;;;;;;12.95;2.45;;;;;;;13.40;100.00;100914.63;5088184;28;20353;-70
2022/11/01 07:00:50;;;;;;;19.70;1.88;;;;;;;13.37;100.00;100901.38;5091708;28;20059;-71
2022/11/01 07:03:15;;;;;;;19.42;2.53;;;;;;;13.36;100.00;100910.19;5089188;28;20108;-69
2022/11/01 07:05:41;;;;;;;13.63;2.88;;;;;;;13.38;100.00;100913.72;5074723;28;20112;-70
2022/11/01 07:08:09;;;;;;;17.33;3.00;;;;;;;13.42;100.00;100915.50;5076257;28;20059;-72
2022/11/01 07:10:37;;;;;;;15.45;3.30;;;;;;;13.45;100.00;100925.22;5076641;28;20028;-71
2022/11/01 07:13:04;;;;;;;14.88;2.30;;;;;;;13.39;100.00;100935.72;5073513;28;20032;-70
2022/11/01 07:15:30;;;;;;;20.05;3.38;;;;;;;13.46;100.00;100927.84;5073110;28;20035;-71
2022/11/01 07:18:01;;;;;;;8.68;1.90;;;;;;;13.51;100.00;100942.88;5088108;28;20024;-71
2022/11/01 07:20:28;;;;;;;15.25;2.03;;;;;;;13.51;100.00;100956.06;5078707;28;20463;-70
2022/11/01 07:23:02;;;;;;;14.38;2.38;;;;;;;13.49;100.00;100954.31;5094684;28;20020;-70
2022/11/01 07:25:28;;;;;;;20.65;2.78;;;;;;;13.45;100.00;100967.50;5094567;28;20031;-71
2022/11/01 07:27:54;;;;;;;13.15;2.08;;;;;;;13.39;100.00;100962.16;5094424;28;20402;-70
2022/11/01 07:30:19;;;;;;;19.88;2.83;;;;;;;13.31;100.00;100972.66;5081559;28;20030;-71
2022/11/01 07:32:45;;;;;;;12.00;2.00;;;;;;;13.26;100.00;100967.34;5094485;28;20024;-71
2022/11/01 07:35:10;;;;;;;12.65;2.03;;;;;;;13.33;100.00;100994.69;5094418;28;20107;-71
2022/11/01 07:37:35;;;;;;;16.35;2.33;;;;;;;13.24;100.00;100997.25;5094240;28;20076;-70
2022/11/01 07:40:02;;;;;;;15.70;2.10;;;;;;;13.22;100.00;100999.03;5094126;28;20031;-69
2022/11/01 07:42:27;;;;;;;12.55;2.72;;;;;;;13.23;100.00;101025.44;5093545;28;20024;-68
2022/11/01 07:44:53;;;;;;;12.77;2.30;;;;;;;13.21;100.00;101014.00;5093996;28;20404;-70
2022/11/01 07:47:18;;;;;;;16.17;2.30;;;;;;;13.10;100.00;101028.84;5092658;28;20367;-69
2022/11/01 07:49:44;;;;;;;21.20;2.15;;;;;;;13.08;100.00;101023.56;5089520;28;20035;-71
2022/11/01 07:52:09;;;;;;;15.32;2.28;;;;;;;13.06;100.00;101027.97;5093194;28;20028;-71
2022/11/01 07:54:34;;;;;;;20.13;2.78;;;;;;;13.11;100.00;101036.78;5092672;28;20032;-70
2022/11/01 07:56:59;;;;;;;20.30;2.30;;;;;;;13.12;100.00;101043.84;5093878;28;20023;-71
2022/11/01 07:59:25;;;;;;;11.48;2.08;;;;;;;13.07;100.00;101026.19;5093216;28;20044;-70
2022/11/01 08:01:50;;;;;;;18.77;2.20;;;;;;;13.04;100.00;101045.53;5086526;28;20052;-70
2022/11/01 08:04:15;;;;;;;11.55;2.38;;;;;;;13.03;100.00;101041.13;5086294;28;20032;-68
2022/11/01 08:06:41;;;;;;;22.20;3.25;;;;;;;13.05;100.00;101047.31;5093633;28;20356;-69
2022/11/01 08:09:06;;;;;;;17.80;2.85;;;;;;;13.06;100.00;101050.84;5079803;28;20043;-68
2022/11/01 08:11:31;;;;;;;16.75;2.65;;;;;;;13.06;100.00;101064.94;5077214;28;20031;-70
2022/11/01 08:13:57;;;;;;;18.10;2.35;;;;;;;13.08;100.00;101057.91;5091697;28;20036;-71
2022/11/01 08:16:22;;;;;;;14.85;2.58;;;;;;;13.04;100.00;101073.72;5093089;28;20032;-69
2022/11/01 08:18:49;;;;;;;13.63;2.03;;;;;;;13.03;100.00;101088.66;5081481;28;20032;-69
2022/11/01 08:21:17;;;;;;;17.60;2.17;;;;;;;13.10;100.00;101082.59;5073409;28;20024;-70
2022/11/01 08:23:44;;;;;;;15.43;2.25;;;;;;;13.10;100.00;101114.31;5091840;28;20035;-69
2022/11/01 08:26:10;;;;;;;12.35;2.10;;;;;;;13.09;100.00;101091.38;5092649;28;20032;-70
2022/11/01 08:28:35;;;;;;;17.20;1.98;;;;;;;13.12;100.00;101107.25;5077398;28;20031;-69
2022/11/01 08:31:05;;;;;;;10.10;1.50;;;;;;;13.16;100.00;101106.41;5080481;28;20055;-70
2022/11/01 08:33:30;;;;;;;22.23;2.83;;;;;;;13.22;100.00;101117.94;5090980;28;20478;-69
2022/11/01 08:35:55;;;;;;;13.40;2.65;;;;;;;13.32;100.00;101114.50;5093073;28;20016;-70
2022/11/01 08:38:21;;;;;;;10.50;2.72;;;;;;;13.26;100.00;101119.72;5084218;28;20043;-69
2022/11/01 08:40:47;;;;;;;15.85;1.95;;;;;;;13.18;100.00;101117.00;5093126;28;20698;-69
2022/11/01 08:43:12;;;;;;;14.15;1.95;;;;;;;13.18;100.00;101126.69;5092971;28;20371;-70
2022/11/01 08:45:39;;;;;;;8.05;1.42;;;;;;;13.23;100.00;101114.44;5087179;28;20035;-69
2022/11/01 08:48:04;;;;;;;12.20;1.90;;;;;;;13.32;100.00;101130.34;5076827;28;20031;-70
2022/11/01 08:50:32;;;;;;;11.45;2.33;;;;;;;13.32;100.00;101120.69;5073012;28;20028;-69
2022/11/01 08:52:58;;;;;;;10.73;2.00;;;;;;;13.37;100.00;101133.97;5085600;28;20040;-70
2022/11/01 08:55:24;;;;;;;11.93;1.90;;;;;;;13.43;100.00;101144.59;5092069;28;20032;-69
2022/11/01 08:57:49;;;;;;;20.15;2.15;;;;;;;13.45;100.00;101141.97;5090232;28;20016;-68
2022/11/01 09:00:15;;;;;;;15.68;2.15;;;;;;;13.47;100.00;101145.53;5071017;28;20164;-69
2022/11/01 09:02:41;;;;;;;14.60;1.80;;;;;;;13.51;100.00;101144.69;5086638;28;20032;-69
2022/11/01 09:05:07;;;;;;;10.13;1.80;;;;;;;13.61;100.00;101150.94;5085713;28;20409;-69
2022/11/01 09:07:34;;;;;;;12.27;2.65;;;;;;;13.70;100.00;101153.66;5072543;28;20017;-69
2022/11/01 09:09:59;;;;;;;14.68;1.80;;;;;;;13.66;100.00;101162.44;5090000;28;20482;-69
2022/11/01 09:12:25;;;;;;;16.27;2.72;;;;;;;13.63;100.00;101176.53;5091156;28;20103;-69
2022/11/01 09:14:51;;;;;;;9.30;1.70;;;;;;;13.51;100.00;101146.44;5083717;28;20024;-69
2022/11/01 09:17:16;;;;;;;17.83;2.13;;;;;;;13.71;100.00;101187.16;5077141;28;20103;-70
2022/11/01 09:19:42;;;;;;;18.98;1.85;;;;;;;13.77;100.00;101192.50;5074000;28;20025;-70
2022/11/01 09:22:07;;;;;;;11.25;1.70;;;;;;;13.71;100.00;101171.28;5084559;28;20479;-69
2022/11/01 09:24:34;;;;;;;15.50;2.33;;;;;;;13.87;100.00;101193.47;5086242;28;20034;-69
2022/11/01 09:26:59;;;;;;;11.98;1.88;;;;;;;13.72;100.00;101188.06;5092774;28;20070;-67
2022/11/01 09:29:25;;;;;;;12.05;1.95;;;;;;;13.75;100.00;101196.88;5075699;28;20036;-69
2022/11/01 09:31:52;;;;;;;17.83;2.45;;;;;;;13.89;100.00;101215.56;5075874;28;20058;-70
2022/11/01 09:34:18;;;;;;;13.13;2.35;;;;;;;14.01;100.00;101201.50;5072570;28;20025;-70
2022/11/01 09:36:44;;;;;;;18.05;2.28;;;;;;;14.14;100.00;101213.97;5072428;28;20057;-69
2022/11/01 09:39:09;;;;;;;11.38;1.48;;;;;;;14.07;100.00;101217.47;5081298;28;20071;-70
2022/11/01 09:41:41;;;;;;;15.80;2.28;;;;;;;14.05;100.00;101219.19;5077458;28;20380;-71
2022/11/01 09:44:16;;;;;;;12.80;1.60;;;;;;;14.23;100.00;101220.22;5072641;28;20020;-69
2022/11/01 09:46:53;;;;;;;12.35;1.80;;;;;;;14.29;100.00;101233.50;5078670;28;20024;-69
2022/11/01 09:49:22;;;;;;;15.43;2.63;;;;;;;14.14;100.00;101221.03;5092347;28;20055;-69
2022/11/01 09:51:48;;;;;;;9.98;2.20;;;;;;;14.40;100.00;101221.22;5091673;28;20046;-69
2022/11/01 09:54:17;;;;;;;13.73;2.05;;;;;;;14.61;100.00;101209.00;5080023;28;20020;-69
2022/11/01 09:56:50;;;;;;;10.35;1.73;;;;;;;14.63;100.00;101228.47;5078313;28;20024;-68
2022/11/01 09:59:27;;;;;;;15.50;2.40;;;;;;;14.81;100.00;101215.34;5080889;28;20048;-69
2022/11/01 10:02:24;;;;;;;15.77;2.05;;;;;;;14.96;100.00;101216.28;5084693;28;20578;-70
2022/11/01 10:05:17;;;;;;;12.05;1.50;;;;;;;15.16;100.00;101229.59;5081129;28;20447;-70
2022/11/01 10:07:46;;;;;;;13.20;1.75;;;;;;;15.42;100.00;101227.03;5082812;28;20024;-70
2022/11/01 10:10:49;;;;;;;15.15;1.98;;;;;;;15.51;97.35;101229.72;5082270;28;20051;-69
2022/11/01 10:13:31;;;;;;;13.82;1.65;;;;;;;15.69;96.52;101233.28;5088516;28;20077;-70
2022/11/01 10:16:33;;;;;;;13.75;1.98;;;;;;;15.88;96.35;101234.22;5080033;28;20031;-70
2022/11/01 10:19:09;;;;;;;11.98;2.35;;;;;;;15.74;96.01;101244.78;5080575;28;20028;-69
2022/11/01 10:22:00;;;;;;;13.23;2.38;;;;;;;15.92;94.71;101253.69;5089038;28;20026;-68
2022/11/01 10:24:35;;;;;;;11.65;2.08;;;;;;;16.13;92.08;101251.06;5094692;28;20033;-69
2022/11/01 10:27:11;;;;;;;15.88;1.90;;;;;;;16.27;90.11;101261.66;5095761;28;20107;-69
2022/11/01 10:29:44;;;;;;;13.90;2.05;;;;;;;16.43;89.11;101273.19;5095594;28;20024;-68
2022/11/01 10:32:30;;;;;;;13.80;1.70;;;;;;;16.58;86.51;101290.00;5094426;28;20399;-69
2022/11/01 10:35:03;;;;;;;11.85;2.67;;;;;;;16.38;88.53;101274.94;5095525;28;20086;-69
2022/11/01 10:37:52;;;;;;;11.53;2.77;;;;;;;16.58;88.60;101277.59;5095529;28;20027;-69
2022/11/01 10:40:23;;;;;;;14.23;2.17;;;;;;;16.88;84.83;101280.19;5095156;28;20220;-69
2022/11/01 10:42:49;;;;;;;11.48;1.98;;;;;;;16.99;84.56;101279.28;5094907;28;20020;-69
2022/11/01 10:45:17;;;;;;;17.30;2.90;;;;;;;16.68;85.33;101274.03;5095338;28;20077;-68
2022/11/01 10:47:45;;;;;;;14.43;2.15;;;;;;;16.31;89.40;101283.81;5095153;28;20020;-70
2022/11/01 10:50:10;;;;;;;12.60;1.80;;;;;;;16.46;87.42;101278.47;5095188;28;20062;-70
2022/11/01 10:52:47;;;;;;;19.70;2.20;;;;;;;16.85;83.05;101267.81;5094347;28;20024;-69
2022/11/01 10:55:19;;;;;;;8.73;1.98;;;;;;;17.00;80.34;101278.41;5074678;28;20036;-69
2022/11/01 10:57:52;;;;;;;10.45;2.40;;;;;;;17.04;80.17;101271.31;5079972;28;20020;-69
2022/11/01 11:00:19;;;;;;;13.50;2.13;;;;;;;17.05;80.15;101267.78;5087784;28;20143;-69
2022/11/01 11:02:55;;;;;;;21.90;1.63;;;;;;;16.94;79.83;101288.19;5081378;28;20059;-69
2022/11/01 11:05:23;;;;;;;9.43;1.67;;;;;;;16.73;82.71;101287.31;5083344;28;20476;-70
2022/11/01 11:07:49;;;;;;;8.75;1.63;;;;;;;16.98;81.40;101282.88;5081683;28;20116;-70
2022/11/01 11:10:20;;;;;;;11.75;1.80;;;;;;;17.76;75.69;101267.41;5086095;28;20047;-69
2022/11/01 11:12:48;;;;;;;9.45;1.83;;;;;;;18.13;73.35;101287.59;5086607;28;20020;-70
2022/11/01 11:15:22;;;;;;;10.32;2.03;;;;;;;18.49;67.89;101274.88;5085005;28;20039;-69
2022/11/01 11:17:53;;;;;;;6.90;1.80;;;;;;;18.32;67.46;101267.91;5087054;28;20056;-68
2022/11/01 11:20:25;;;;;;;7.57;1.70;;;;;;;18.14;68.74;101273.41;5078839;28;21474;-68
2022/11/01 11:22:50;;;;;;;15.82;1.92;;;;;;;18.28;66.58;101271.50;5081468;28;20016;-69
2022/11/01 11:25:21;;;;;;;14.45;1.92;;;;;;;18.56;67.52;101268.59;5092579;28;20028;-69
2022/11/01 11:27:51;;;;;;;16.25;2.08;;;;;;;18.63;65.41;101272.94;5094189;28;20020;-69